createdAt,value
2023-04-28T00:00:14.726Z,31.92
2023-04-28T00:02:43.729Z,30.50
2023-04-28T00:05:13.139Z,31.40
2023-04-28T00:07:42.012Z,31.23
2023-04-28T00:10:11.229Z,32.90
2023-04-28T00:12:39.888Z,30.17
2023-04-28T00:15:08.950Z,30.42
2023-04-28T00:17:37.744Z,27.88
2023-04-28T00:20:07.152Z,28.55
2023-04-28T00:22:35.973Z,28.95
2023-04-28T00:25:04.866Z,28.08
2023-04-28T00:27:34.841Z,28.23
2023-04-28T00:30:03.639Z,28.23
2023-04-28T00:32:32.289Z,27.77
2023-04-28T00:35:00.904Z,30.33
2023-04-28T00:37:29.474Z,29.67
2023-04-28T00:39:58.546Z,29.65
2023-04-28T00:42:27.388Z,35.53
2023-04-28T00:44:56.075Z,34.45
2023-04-28T00:47:24.876Z,33.80
2023-04-28T00:49:54.095Z,32.47
2023-04-28T00:52:22.822Z,30.42
2023-04-28T00:54:52.061Z,30.98
2023-04-28T00:57:21.530Z,31.75
2023-04-28T00:59:50.273Z,30.75
2023-04-28T01:02:19.362Z,31.67
2023-04-28T01:04:49.420Z,29.08
2023-04-28T01:07:18.059Z,27.90
2023-04-28T01:09:48.672Z,29.38
2023-04-28T01:12:17.329Z,29.60
2023-04-28T01:14:46.254Z,28.77
2023-04-28T01:17:15.057Z,27.33
2023-04-28T01:19:43.835Z,29.52
2023-04-28T01:22:15.008Z,29.23
2023-04-28T01:24:43.890Z,28.13
2023-04-28T01:27:12.910Z,27.00
2023-04-28T01:29:41.853Z,26.67
2023-04-28T01:32:10.813Z,26.88
2023-04-28T01:34:39.532Z,27.08
2023-04-28T01:37:08.240Z,27.13
2023-04-28T01:39:37.239Z,27.80
2023-04-28T01:42:06.189Z,27.73
2023-04-28T01:44:35.320Z,25.95
2023-04-28T01:47:04.077Z,26.40
2023-04-28T01:49:33.179Z,26.50
2023-04-28T01:52:01.863Z,26.00
2023-04-28T01:54:30.579Z,25.77
2023-04-28T01:56:59.448Z,24.63
2023-04-28T01:59:28.423Z,25.17
2023-04-28T02:01:57.176Z,25.00
2023-04-28T02:04:26.102Z,23.88
2023-04-28T02:06:54.855Z,23.88
2023-04-28T02:09:23.526Z,22.58
2023-04-28T02:11:52.322Z,22.65
2023-04-28T02:14:21.044Z,21.20
2023-04-28T02:16:49.712Z,22.80
2023-04-28T02:19:18.401Z,23.27
2023-04-28T02:21:47.132Z,22.60
2023-04-28T02:24:16.051Z,23.27
2023-04-28T02:26:45.108Z,23.80
2023-04-28T02:29:13.880Z,22.58
2023-04-28T02:31:42.616Z,21.77
2023-04-28T02:34:11.545Z,23.52
2023-04-28T02:36:41.194Z,21.48
2023-04-28T02:39:09.953Z,21.48
2023-04-28T02:41:38.670Z,18.73
2023-04-28T02:44:07.390Z,17.30
2023-04-28T02:46:36.169Z,19.25
2023-04-28T02:49:04.990Z,17.60
2023-04-28T02:51:33.893Z,18.83
2023-04-28T02:54:02.595Z,17.88
2023-04-28T02:56:31.699Z,18.85
2023-04-28T02:59:00.551Z,18.65
2023-04-28T03:01:29.339Z,17.83
2023-04-28T03:03:58.157Z,16.67
2023-04-28T03:06:27.593Z,18.00
2023-04-28T03:08:56.277Z,16.60
2023-04-28T03:11:25.065Z,17.85
2023-04-28T03:13:53.762Z,17.08
2023-04-28T03:16:22.523Z,17.75
2023-04-28T03:18:51.404Z,17.58
2023-04-28T03:21:20.133Z,18.20
2023-04-28T03:23:48.856Z,18.02
2023-04-28T03:26:17.814Z,18.25
2023-04-28T03:28:47.070Z,17.52
2023-04-28T03:31:15.737Z,17.08
2023-04-28T03:33:46.568Z,17.90
2023-04-28T03:36:15.409Z,17.52
2023-04-28T03:38:44.154Z,16.75
2023-04-28T03:41:12.830Z,17.10
2023-04-28T03:43:41.645Z,16.23
2023-04-28T03:46:10.565Z,16.63
2023-04-28T03:48:39.263Z,16.63
2023-04-28T03:51:08.074Z,16.58
2023-04-28T03:53:36.798Z,15.80
2023-04-28T03:56:05.599Z,17.83
2023-04-28T03:58:34.264Z,16.60
2023-04-28T04:01:03.058Z,16.88
2023-04-28T04:03:32.077Z,16.63
2023-04-28T04:06:00.965Z,17.70
2023-04-28T04:08:29.669Z,16.83
2023-04-28T04:10:58.531Z,17.38
2023-04-28T04:13:27.214Z,16.52
2023-04-28T04:15:55.978Z,16.20
2023-04-28T04:18:24.816Z,16.80
2023-04-28T04:20:55.029Z,17.13
2023-04-28T04:23:24.157Z,16.02
2023-04-28T04:25:52.870Z,16.73
2023-04-28T04:28:21.901Z,16.30
2023-04-28T04:30:50.546Z,16.38
2023-04-28T04:33:19.181Z,15.52
2023-04-28T04:35:48.228Z,15.23
2023-04-28T04:38:16.995Z,15.05
2023-04-28T04:40:45.646Z,15.30
2023-04-28T04:43:14.268Z,14.52
2023-04-28T04:45:42.927Z,13.48
2023-04-28T04:48:11.619Z,15.63
2023-04-28T04:50:40.370Z,17.27
2023-04-28T04:53:12.175Z,17.77
2023-04-28T04:55:42.773Z,18.02
2023-04-28T04:58:11.815Z,18.40
2023-04-28T05:00:40.557Z,16.73
2023-04-28T05:03:10.433Z,15.93
2023-04-28T05:05:41.115Z,15.98
2023-04-28T05:08:09.837Z,17.00
2023-04-28T05:10:38.560Z,17.88
2023-04-28T05:13:07.392Z,16.75
2023-04-28T05:15:36.094Z,17.00
2023-04-28T05:18:10.959Z,17.77
2023-04-28T05:20:39.860Z,17.38
2023-04-28T05:23:09.096Z,17.35
2023-04-28T05:25:37.858Z,16.73
2023-04-28T05:28:08.549Z,16.73
2023-04-28T05:30:37.227Z,17.23
2023-04-28T05:33:06.108Z,17.25
2023-04-28T05:35:34.880Z,19.45
2023-04-28T05:38:03.629Z,17.40
2023-04-28T05:40:32.403Z,17.83
2023-04-28T05:43:01.130Z,16.88
2023-04-28T05:45:29.895Z,17.05
2023-04-28T05:47:58.653Z,17.85
2023-04-28T05:50:27.832Z,16.55
2023-04-28T05:52:56.526Z,17.48
2023-04-28T05:55:25.264Z,18.45
2023-04-28T05:57:55.916Z,17.77
2023-04-28T06:00:24.641Z,17.88
2023-04-28T06:02:53.543Z,16.42
2023-04-28T06:05:22.992Z,17.65
2023-04-28T06:07:54.488Z,18.30
2023-04-28T06:10:24.746Z,17.60
2023-04-28T06:12:53.471Z,17.85
2023-04-28T06:15:22.349Z,17.60
2023-04-28T06:17:51.237Z,16.73
2023-04-28T06:20:20.157Z,17.63
2023-04-28T06:22:48.909Z,18.80
2023-04-28T06:25:17.744Z,16.95
2023-04-28T06:27:47.147Z,17.27
2023-04-28T06:30:23.561Z,18.02
2023-04-28T06:32:52.622Z,17.50
2023-04-28T06:35:21.571Z,17.13
2023-04-28T06:37:50.303Z,16.45
2023-04-28T06:40:19.047Z,17.08
2023-04-28T06:42:48.108Z,17.58
2023-04-28T06:45:16.954Z,17.75
2023-04-28T06:47:46.206Z,16.73
2023-04-28T06:50:14.956Z,17.13
2023-04-28T06:52:43.644Z,17.52
2023-04-28T06:55:15.474Z,18.48
2023-04-28T06:57:44.480Z,17.13
2023-04-28T07:00:13.847Z,16.42
2023-04-28T07:02:42.624Z,16.45
2023-04-28T07:05:12.009Z,17.38
2023-04-28T07:07:42.123Z,16.92
2023-04-28T07:10:12.228Z,17.58
2023-04-28T07:12:40.838Z,16.30
2023-04-28T07:15:10.434Z,16.80
2023-04-28T07:17:39.868Z,16.48
2023-04-28T07:20:09.070Z,16.65
2023-04-28T07:22:37.822Z,16.73
2023-04-28T07:25:07.408Z,17.23
2023-04-28T07:27:36.094Z,16.70
2023-04-28T07:30:11.873Z,17.08
2023-04-28T07:32:53.592Z,17.33
2023-04-28T07:35:22.324Z,17.02
2023-04-28T07:37:51.062Z,16.17
2023-04-28T07:40:20.810Z,15.90
2023-04-28T07:42:49.761Z,16.40
2023-04-28T07:45:18.854Z,16.25
2023-04-28T07:47:47.693Z,15.30
2023-04-28T07:50:17.285Z,16.73
2023-04-28T07:52:46.103Z,16.83
2023-04-28T07:55:15.010Z,16.83
2023-04-28T07:57:43.842Z,16.17
2023-04-28T08:00:13.228Z,15.95
2023-04-28T08:02:42.172Z,16.42
2023-04-28T08:05:11.650Z,16.98
2023-04-28T08:07:40.694Z,16.27
2023-04-28T08:10:12.651Z,17.52
2023-04-28T08:12:42.233Z,15.73
2023-04-28T08:15:11.964Z,16.13
2023-04-28T08:17:40.982Z,16.10
2023-04-28T08:20:10.375Z,16.80
2023-04-28T08:22:39.223Z,16.83
2023-04-28T08:25:08.536Z,17.05
2023-04-28T08:27:39.308Z,16.75
2023-04-28T08:30:10.684Z,16.92
2023-04-28T08:32:39.716Z,16.33
2023-04-28T08:35:09.561Z,17.27
2023-04-28T08:37:38.821Z,16.42
2023-04-28T08:40:10.880Z,18.80
2023-04-28T08:42:40.706Z,17.00
2023-04-28T08:45:14.160Z,16.63
2023-04-28T08:47:47.093Z,17.20
2023-04-28T08:50:17.416Z,16.58
2023-04-28T08:52:46.589Z,16.63
2023-04-28T08:55:16.766Z,16.35
2023-04-28T08:57:48.350Z,17.08
2023-04-28T09:00:17.750Z,17.20
2023-04-28T09:02:46.836Z,17.02
2023-04-28T09:05:16.600Z,16.83
2023-04-28T09:07:49.863Z,18.13
2023-04-28T09:10:19.593Z,17.55
2023-04-28T09:12:50.238Z,17.67
2023-04-28T09:15:42.597Z,17.23
2023-04-28T09:18:16.753Z,18.20
2023-04-28T09:20:46.708Z,17.13
2023-04-28T09:23:20.664Z,16.98
2023-04-28T09:26:09.158Z,17.90
2023-04-28T09:28:38.310Z,17.05
2023-04-28T09:31:23.764Z,18.25
2023-04-28T09:34:00.620Z,18.08
2023-04-28T09:36:32.149Z,18.38
2023-04-28T09:39:01.320Z,19.65
2023-04-28T09:41:46.488Z,17.67
2023-04-28T09:44:19.250Z,18.55
2023-04-28T09:46:49.276Z,18.67
2023-04-28T09:49:18.076Z,18.52
2023-04-28T09:51:47.282Z,17.95
2023-04-28T09:54:17.414Z,18.70
2023-04-28T09:56:49.684Z,19.40
2023-04-28T09:59:18.596Z,19.85
2023-04-28T10:01:47.699Z,19.25
2023-04-28T10:04:17.281Z,18.95
2023-04-28T10:06:46.704Z,18.50
2023-04-28T10:09:15.862Z,19.23
2023-04-28T10:11:44.843Z,19.25
2023-04-28T10:14:14.113Z,19.63
2023-04-28T10:16:44.456Z,19.25
2023-04-28T10:19:14.280Z,20.30
2023-04-28T10:21:55.526Z,19.30
2023-04-28T10:24:31.876Z,20.23
2023-04-28T10:27:10.314Z,18.63
2023-04-28T10:29:39.405Z,20.23
2023-04-28T10:32:27.195Z,17.95
2023-04-28T10:35:24.622Z,18.85
2023-04-28T10:38:23.635Z,18.27
2023-04-28T10:40:56.245Z,19.05
2023-04-28T10:43:32.141Z,18.88
2023-04-28T10:46:03.889Z,20.52
2023-04-28T10:48:34.972Z,21.00
2023-04-28T10:51:10.427Z,19.02
2023-04-28T10:53:47.813Z,20.13
2023-04-28T10:56:20.975Z,19.75
2023-04-28T10:58:51.615Z,19.77
2023-04-28T11:01:23.182Z,20.70
2023-04-28T11:04:01.420Z,21.07
2023-04-28T11:06:35.520Z,23.60
2023-04-28T11:09:22.007Z,21.02
2023-04-28T11:12:12.258Z,22.73
2023-04-28T11:14:42.355Z,21.15
2023-04-28T11:17:14.773Z,27.67
2023-04-28T11:19:47.230Z,27.90
2023-04-28T11:22:19.564Z,27.10
2023-04-28T11:25:05.042Z,27.70
2023-04-28T11:27:35.603Z,27.02
2023-04-28T11:30:06.308Z,23.85
2023-04-28T11:32:36.691Z,25.50
2023-04-28T11:35:06.506Z,25.73
2023-04-28T11:37:35.365Z,27.73
2023-04-28T11:40:13.296Z,28.50
2023-04-28T11:42:50.330Z,27.25
2023-04-28T11:45:19.256Z,28.48
2023-04-28T11:47:48.399Z,29.02
2023-04-28T11:50:17.397Z,28.50
2023-04-28T11:52:54.008Z,28.48
2023-04-28T11:55:23.096Z,29.48
2023-04-28T11:58:11.522Z,29.25
2023-04-28T12:00:40.352Z,30.35
2023-04-28T12:03:10.294Z,30.50
2023-04-28T12:05:46.613Z,30.60
2023-04-28T12:08:16.329Z,30.55
2023-04-28T12:10:45.371Z,30.70
2023-04-28T12:13:18.183Z,30.17
2023-04-28T12:15:47.080Z,28.35
2023-04-28T12:18:17.959Z,28.05
2023-04-28T12:20:46.857Z,26.70
2023-04-28T12:23:15.723Z,26.67
2023-04-28T12:25:46.463Z,28.10
2023-04-28T12:28:15.426Z,27.52
2023-04-28T12:30:44.715Z,28.17
2023-04-28T12:33:30.899Z,28.70
2023-04-28T12:36:00.774Z,28.13
2023-04-28T12:38:29.771Z,29.48
2023-04-28T12:40:59.758Z,28.73
2023-04-28T12:43:30.235Z,28.33
2023-04-28T12:45:59.048Z,27.70
2023-04-28T12:48:28.714Z,30.30
2023-04-28T12:50:57.424Z,28.40
2023-04-28T12:53:26.506Z,28.58
2023-04-28T12:55:55.986Z,27.95
2023-04-28T12:58:24.716Z,29.40
2023-04-28T13:00:56.132Z,30.48
2023-04-28T13:03:25.330Z,30.63
2023-04-28T13:05:54.162Z,32.38
2023-04-28T13:08:23.184Z,32.67
2023-04-28T13:10:52.355Z,33.35
2023-04-28T13:13:21.065Z,32.25
2023-04-28T13:15:49.893Z,31.10
2023-04-28T13:18:18.747Z,32.80
2023-04-28T13:20:47.512Z,33.45
2023-04-28T13:23:16.400Z,34.13
2023-04-28T13:25:45.614Z,34.00
2023-04-28T13:28:15.474Z,34.92
2023-04-28T13:30:44.274Z,36.28
2023-04-28T13:33:13.135Z,36.33
2023-04-28T13:35:42.228Z,41.15
2023-04-28T13:38:10.991Z,43.83
2023-04-28T13:40:39.780Z,43.20
2023-04-28T13:43:08.646Z,43.75
2023-04-28T13:45:37.442Z,44.25
2023-04-28T13:48:06.336Z,43.25
2023-04-28T13:50:35.430Z,43.20
2023-04-28T13:53:05.153Z,42.97
2023-04-28T13:55:34.016Z,42.30
2023-04-28T13:58:05.803Z,40.22
2023-04-28T14:00:35.916Z,41.17
2023-04-28T14:03:04.935Z,39.28
2023-04-28T14:05:42.100Z,38.67
2023-04-28T14:08:20.441Z,37.78
2023-04-28T14:10:50.561Z,37.65
2023-04-28T14:13:20.241Z,35.17
2023-04-28T14:15:58.539Z,32.92
2023-04-28T14:18:29.532Z,33.53
2023-04-28T14:20:58.677Z,31.50
2023-04-28T14:23:27.833Z,30.02
2023-04-28T14:25:59.046Z,27.90
2023-04-28T14:28:27.906Z,26.95
2023-04-28T14:30:56.842Z,26.30
2023-04-28T14:33:25.886Z,24.50
2023-04-28T14:35:54.905Z,24.83
2023-04-28T14:38:23.796Z,24.02
2023-04-28T14:40:52.657Z,24.40
2023-04-28T14:43:21.898Z,24.48
2023-04-28T14:45:51.393Z,23.05
2023-04-28T14:48:21.131Z,22.98
2023-04-28T14:50:50.154Z,24.25
2023-04-28T14:53:19.079Z,23.30
2023-04-28T14:55:47.989Z,23.67
2023-04-28T14:58:17.002Z,23.00
2023-04-28T15:00:45.984Z,22.30
2023-04-28T15:03:15.346Z,22.52
2023-04-28T15:05:45.023Z,22.50
2023-04-28T15:08:14.023Z,23.02
2023-04-28T15:10:43.165Z,23.52
2023-04-28T15:13:12.163Z,23.15
2023-04-28T15:15:41.600Z,22.23
2023-04-28T15:18:11.331Z,23.27
2023-04-28T15:20:40.395Z,23.38
2023-04-28T15:23:09.175Z,23.77
2023-04-28T15:25:38.124Z,22.20
2023-04-28T15:28:08.389Z,21.70
2023-04-28T15:30:37.245Z,23.10
2023-04-28T15:33:06.162Z,22.75
2023-04-28T15:35:35.959Z,23.90
2023-04-28T15:38:04.779Z,22.95
2023-04-28T15:40:33.585Z,24.73
2023-04-28T15:43:02.399Z,22.92
2023-04-28T15:45:31.231Z,22.70
2023-04-28T15:48:00.390Z,23.80
2023-04-28T15:50:29.307Z,22.55
2023-04-28T15:52:58.585Z,23.13
2023-04-28T15:55:27.574Z,23.45
2023-04-28T15:57:57.256Z,24.63
2023-04-28T16:00:26.037Z,23.00
2023-04-28T16:02:55.036Z,23.38
2023-04-28T16:05:24.040Z,24.15
2023-04-28T16:07:53.825Z,24.65
2023-04-28T16:10:22.560Z,23.75
2023-04-28T16:12:51.451Z,23.83
2023-04-28T16:15:20.775Z,25.02
2023-04-28T16:17:50.156Z,22.98
2023-04-28T16:20:19.247Z,24.75
2023-04-28T16:22:48.126Z,24.88
2023-04-28T16:25:17.136Z,23.95
2023-04-28T16:27:46.547Z,24.60
2023-04-28T16:30:15.553Z,23.75
2023-04-28T16:32:44.348Z,25.33
2023-04-28T16:35:15.464Z,23.63
2023-04-28T16:37:44.708Z,23.90
2023-04-28T16:40:14.546Z,24.30
2023-04-28T16:42:44.471Z,24.13
2023-04-28T16:45:14.034Z,24.27
2023-04-28T16:47:44.302Z,25.85
2023-04-28T16:50:15.658Z,25.60
2023-04-28T16:52:44.603Z,26.88
2023-04-28T16:55:13.600Z,25.95
2023-04-28T16:57:42.815Z,26.70
2023-04-28T17:01:15.784Z,25.05
2023-04-28T17:03:46.426Z,25.35
2023-04-28T17:06:15.327Z,26.35
2023-04-28T17:08:44.119Z,25.42
2023-04-28T17:11:18.786Z,26.25
2023-04-28T17:13:47.917Z,25.75
2023-04-28T17:16:16.668Z,25.52
2023-04-28T17:18:45.963Z,24.73
2023-04-28T17:21:15.678Z,25.08
2023-04-28T17:23:44.384Z,25.10
2023-04-28T17:26:13.064Z,25.75
2023-04-28T17:28:42.274Z,25.33
2023-04-28T17:31:11.563Z,25.23
2023-04-28T17:33:40.343Z,25.98
2023-04-28T17:36:09.364Z,24.92
2023-04-28T17:38:39.297Z,26.13
2023-04-28T17:41:08.500Z,25.55
2023-04-28T17:43:38.512Z,25.55
2023-04-28T17:46:07.470Z,25.52
2023-04-28T17:48:36.234Z,24.85
2023-04-28T17:51:04.884Z,26.13
2023-04-28T17:53:33.476Z,24.65
2023-04-28T17:56:03.473Z,24.58
2023-04-28T17:58:33.690Z,24.92
2023-04-28T18:01:04.892Z,25.05
2023-04-28T18:03:35.337Z,25.27
2023-04-28T18:06:08.485Z,24.70
2023-04-28T18:08:37.721Z,25.80
2023-04-28T18:11:07.660Z,26.23
2023-04-28T18:13:36.409Z,25.88
2023-04-28T18:16:06.085Z,25.10
2023-04-28T18:18:35.651Z,26.25
2023-04-28T18:21:04.927Z,25.52
2023-04-28T18:23:34.193Z,25.30
2023-04-28T18:26:02.854Z,25.15
2023-04-28T18:28:31.620Z,26.10
2023-04-28T18:31:00.519Z,26.48
2023-04-28T18:33:29.175Z,30.60
2023-04-28T18:36:02.508Z,30.65
2023-04-28T18:38:32.676Z,27.27
2023-04-28T18:41:02.579Z,26.83
2023-04-28T18:43:31.625Z,26.02
2023-04-28T18:46:05.210Z,26.58
2023-04-28T18:48:35.167Z,27.00
2023-04-28T18:51:04.534Z,27.35
2023-04-28T18:53:33.685Z,27.73
2023-04-28T18:56:02.346Z,26.85
2023-04-28T18:58:31.030Z,25.60
2023-04-28T19:00:59.670Z,25.70
2023-04-28T19:03:29.115Z,26.13
2023-04-28T19:05:57.896Z,27.42
2023-04-28T19:08:26.567Z,29.00
2023-04-28T19:10:55.153Z,27.30
2023-04-28T19:13:24.183Z,28.17
2023-04-28T19:15:57.107Z,27.67
2023-04-28T19:18:25.872Z,26.80
2023-04-28T19:21:12.968Z,26.08
2023-04-28T19:23:41.927Z,27.63
2023-04-28T19:26:10.914Z,28.73
2023-04-28T19:28:39.576Z,28.48
2023-04-28T19:31:09.392Z,28.73
2023-04-28T19:33:38.075Z,27.20
2023-04-28T19:36:10.706Z,29.08
2023-04-28T19:38:41.169Z,29.10
2023-04-28T19:41:09.868Z,27.88
2023-04-28T19:43:38.710Z,27.38
2023-04-28T19:46:07.322Z,28.17
2023-04-28T19:48:36.023Z,28.48
2023-04-28T19:51:04.723Z,29.92
2023-04-28T19:53:33.602Z,27.92
2023-04-28T19:56:02.833Z,27.65
2023-04-28T19:58:32.640Z,28.77
2023-04-28T20:01:01.239Z,27.95
2023-04-28T20:03:30.838Z,28.48
2023-04-28T20:06:00.160Z,26.80
2023-04-28T20:08:29.350Z,29.33
2023-04-28T20:10:58.016Z,29.00
2023-04-28T20:13:28.334Z,28.50
2023-04-28T20:15:57.515Z,29.15
2023-04-28T20:18:26.769Z,28.92
2023-04-28T20:20:55.518Z,28.77
2023-04-28T20:23:24.254Z,29.67
2023-04-28T20:25:52.892Z,29.50
2023-04-28T20:28:21.541Z,27.92
2023-04-28T20:30:50.109Z,27.88
2023-04-28T20:33:19.731Z,29.38
2023-04-28T20:35:48.306Z,27.85
2023-04-28T20:38:17.014Z,28.02
2023-04-28T20:40:46.196Z,27.27
2023-04-28T20:43:14.836Z,26.50
2023-04-28T20:45:43.441Z,27.70
2023-04-28T20:48:12.116Z,28.40
2023-04-28T20:50:42.072Z,29.38
2023-04-28T20:53:10.728Z,26.88
2023-04-28T20:55:39.536Z,27.02
2023-04-28T20:58:08.419Z,27.52
2023-04-28T21:00:41.201Z,27.88
2023-04-28T21:03:16.193Z,28.13
2023-04-28T21:05:47.348Z,28.58
2023-04-28T21:08:16.385Z,28.05
2023-04-28T21:10:45.115Z,27.70
2023-04-28T21:13:14.062Z,28.65
2023-04-28T21:15:43.157Z,28.35
2023-04-28T21:18:11.993Z,28.77
2023-04-28T21:20:40.689Z,30.42
2023-04-28T21:23:09.421Z,28.85
2023-04-28T21:25:38.356Z,28.90
2023-04-28T21:28:07.047Z,28.27
2023-04-28T21:30:35.792Z,28.88
2023-04-28T21:33:04.536Z,28.95
2023-04-28T21:35:33.364Z,29.38
2023-04-28T21:38:02.086Z,27.50
2023-04-28T21:40:30.739Z,28.50
2023-04-28T21:42:59.422Z,29.58
2023-04-28T21:45:28.148Z,29.60
2023-04-28T21:47:57.980Z,29.90
2023-04-28T21:50:26.785Z,30.10
2023-04-28T21:52:55.949Z,31.80
2023-04-28T21:55:24.681Z,29.90
2023-04-28T21:57:54.975Z,30.13
2023-04-28T22:00:28.978Z,30.00
2023-04-28T22:02:59.280Z,29.65
2023-04-28T22:05:28.143Z,30.30
2023-04-28T22:07:56.788Z,30.42
2023-04-28T22:10:25.487Z,30.08
2023-04-28T22:12:54.139Z,29.88
2023-04-28T22:15:22.921Z,30.45
2023-04-28T22:17:51.724Z,29.20
2023-04-28T22:20:20.429Z,30.50
2023-04-28T22:22:49.036Z,31.45
2023-04-28T22:25:18.307Z,29.73
2023-04-28T22:27:46.927Z,31.70
2023-04-28T22:30:16.601Z,29.83
2023-04-28T22:32:45.669Z,31.65
2023-04-28T22:35:14.884Z,32.67
2023-04-28T22:37:44.519Z,33.38
2023-04-28T22:40:13.360Z,32.72
2023-04-28T22:42:43.546Z,33.28
2023-04-28T22:45:12.947Z,31.95
2023-04-28T22:47:42.829Z,33.70
2023-04-28T22:50:12.474Z,33.80
2023-04-28T22:52:41.329Z,34.15
2023-04-28T22:55:10.578Z,31.80
2023-04-28T22:57:39.296Z,33.67
2023-04-28T23:00:09.058Z,35.80
2023-04-28T23:02:37.826Z,39.47
2023-04-28T23:05:08.834Z,39.22
2023-04-28T23:07:37.600Z,41.80
2023-04-28T23:10:07.707Z,40.97
2023-04-28T23:12:36.377Z,39.90
2023-04-28T23:15:05.206Z,37.20
2023-04-28T23:17:33.875Z,36.95
2023-04-28T23:20:02.569Z,36.45
2023-04-28T23:22:31.228Z,36.53
2023-04-28T23:25:00.200Z,36.08
2023-04-28T23:27:29.003Z,35.97
2023-04-28T23:29:57.664Z,34.70
2023-04-28T23:32:26.380Z,34.85
2023-04-28T23:34:55.047Z,39.65
2023-04-28T23:37:23.668Z,42.78
2023-04-28T23:39:52.692Z,39.72
2023-04-28T23:42:21.651Z,37.90
2023-04-28T23:44:50.603Z,35.38
2023-04-28T23:47:19.281Z,35.15
2023-04-28T23:49:48.229Z,40.80
2023-04-28T23:52:17.534Z,37.67
2023-04-28T23:54:46.354Z,36.47
2023-04-28T23:57:14.970Z,36.47
2023-04-28T23:59:43.551Z,32.70
